Udo Maru — JM6522 — position and weather

sailwx.info

Track history (hours):
 
Tides and Currents Weather Stations Pressure Air Temp Water Temp Dewpoint Dewpoint Depression Visibility Wind Speed Wind Dir Waves Ship Positions

Udo Maru

Last reported at 2016-Jul-24 10:34 UTC. Time now 2016-Jul-25 14:01 UTC.
Position N 34°37' E 134°56'.

Length 87 m; draft 4.9 m.

Type: Cargo ship. MMSI: 431600499.

Date/timePositionNaut miles runAvg speedWind from/ knotsBaromVisibWave heightAir tempDewpointWater temp
2016-Jul-24 10:34N 34°37' E 134°56'8 8.3
2016-Jul-24 09:33N 34°34' E 135°05'1111.3
2016-Jul-24 08:33N 34°23' E 135°02'9 9.4
2016-Jul-24 07:33N 34°14' E 134°60'1111.2
2016-Jul-24 06:32N 34°03' E 135°01'  
2016-Jul-21 05:33N 34°52' E 139°43'2311.2
2016-Jul-21 03:32N 34°60' E 140°09'1711.5
2016-Jul-21 02:03N 35°10' E 140°26'611.2
2016-Jul-21 01:33N 35°15' E 140°30'1010.5
2016-Jul-21 00:33N 35°23' E 140°38'1110.2
2016-Jul-20 23:31N 35°31' E 140°47'1110.9
2016-Jul-20 22:32N 35°40' E 140°54'1410.3
2016-Jul-20 21:13N 35°52' E 140°49'711.1
2016-Jul-20 20:33N 35°58' E 140°43'4 3.6
2016-Jul-20 19:33N 35°56' E 140°40'0 0.0
2016-Jul-20 18:26N 35°56' E 140°40'0 0.0
2016-Jul-20 17:08N 35°56' E 140°40'0 0.1
2016-Jul-20 16:32N 35°56' E 140°40'0 0.1
2016-Jul-20 15:20N 35°56' E 140°40'0 0.1
2016-Jul-20 14:20N 35°56' E 140°40'0 0.1
2016-Jul-20 13:20N 35°56' E 140°40'0 0.0
2016-Jul-20 12:32N 35°56' E 140°40'0 0.0
2016-Jul-20 11:32N 35°56' E 140°40'0 0.1
2016-Jul-20 10:24N 35°56' E 140°40'0 0.1
2016-Jul-20 08:31N 35°55' E 140°40'0 0.0
2016-Jul-20 07:04N 35°55' E 140°40'0 0.0
2016-Jul-20 06:34N 35°55' E 140°40'0 0.0
2016-Jul-20 02:33N 35°55' E 140°40'0 0.0
2016-Jul-20 01:33N 35°55' E 140°40'0 0.0
2016-Jul-20 00:28N 35°55' E 140°40'0 0.0
2016-Jul-19 23:32N 35°55' E 140°40'0 0.0
2016-Jul-19 22:33N 35°55' E 140°40'0 0.0
2016-Jul-19 21:33N 35°55' E 140°40'0 0.0
2016-Jul-19 20:33N 35°55' E 140°40'0 0.0
2016-Jul-19 19:33N 35°55' E 140°40'0 0.0
2016-Jul-19 18:33N 35°55' E 140°40'0 0.0
2016-Jul-19 16:33N 35°55' E 140°40'0 0.0
2016-Jul-19 15:33N 35°55' E 140°40'0 0.0
2016-Jul-19 14:33N 35°55' E 140°40'0 0.1
2016-Jul-19 13:33N 35°56' E 140°40'0 0.2
2016-Jul-19 12:33N 35°56' E 140°40'0 0.1
2016-Jul-19 11:21N 35°56' E 140°40'0 0.0
2016-Jul-19 04:33N 35°56' E 140°40'0 0.0
2016-Jul-19 03:22N 35°56' E 140°40'0 0.1
2016-Jul-19 02:33N 35°56' E 140°40'4 4.4
2016-Jul-19 01:33N 35°58' E 140°44'0 0.0
2016-Jul-19 00:33N 35°58' E 140°44'0 0.0
2016-Jul-18 23:31N 35°58' E 140°44'0 0.0
2016-Jul-18 22:29N 35°58' E 140°44'0 0.0
2016-Jul-18 21:33N 35°58' E 140°44'7 7.0
2016-Jul-18 20:33N 35°52' E 140°49'1211.5
2016-Jul-18 19:33N 35°42' E 140°56'1111.6
2016-Jul-18 18:33N 35°32' E 140°48'1313.0
2016-Jul-18 17:32N 35°22' E 140°37'1412.7
2016-Jul-18 16:27N 35°11' E 140°27'1212.2
2016-Jul-18 15:29N 35°04' E 140°16'1112.1
2016-Jul-18 14:33N 34°58' E 140°04'1411.5
2016-Jul-18 13:20N 34°53' E 139°48'911.3
2016-Jul-18 12:33N 35°01' E 139°43'1212.1
2016-Jul-18 11:33N 35°13' E 139°46'1111.4
2016-Jul-18 10:33N 35°24' E 139°43'1212.2
2016-Jul-18 09:33N 35°31' E 139°55'9 9.3
2016-Jul-18 08:32N 35°37' E 140°05'0 0.0
2016-Jul-18 07:32N 35°37' E 140°05'0 0.0
2016-Jul-18 06:33N 35°37' E 140°05'0 0.0
2016-Jul-18 05:33N 35°37' E 140°05'0 0.5
2016-Jul-18 04:33N 35°36' E 140°05'5 4.9
2016-Jul-18 03:33N 35°33' E 140°00'0 0.3
2016-Jul-18 02:33N 35°33' E 140°00'1010.3
2016-Jul-18 01:33N 35°27' E 139°50'1010.2
2016-Jul-18 00:33N 35°18' E 139°45'10 9.9
2016-Jul-17 23:33N 35°08' E 139°45'243 9.6
2016-Jul-16 22:12N 34°02' E 135°01'711.1
2016-Jul-16 21:33N 34°10' E 134°60'1110.9
2016-Jul-16 20:32N 34°21' E 134°59'1010.8
2016-Jul-16 19:34N 34°31' E 135°02'  
Track history (hours):
 
Tides and Currents Weather Stations Pressure Air Temp Water Temp Dewpoint Dewpoint Depression Visibility Wind Speed Wind Dir Waves Ship Positions

Udo Maru

Last reported at 2016-Jul-24 10:34 UTC. Time now 2016-Jul-25 14:01 UTC.
Position N 34°37' E 134°56'.

Length 87 m; draft 4.9 m.

Type: Cargo ship. MMSI: 431600499.

Date/timePositionNaut miles runAvg speedWind from/ knotsBaromVisibWave heightAir tempDewpointWater temp
2016-Jul-24 10:34N 34°37' E 134°56'8 8.3
2016-Jul-24 09:33N 34°34' E 135°05'1111.3
2016-Jul-24 08:33N 34°23' E 135°02'9 9.4
2016-Jul-24 07:33N 34°14' E 134°60'1111.2
2016-Jul-24 06:32N 34°03' E 135°01'  
2016-Jul-21 05:33N 34°52' E 139°43'2311.2
2016-Jul-21 03:32N 34°60' E 140°09'1711.5
2016-Jul-21 02:03N 35°10' E 140°26'611.2
2016-Jul-21 01:33N 35°15' E 140°30'1010.5
2016-Jul-21 00:33N 35°23' E 140°38'1110.2
2016-Jul-20 23:31N 35°31' E 140°47'1110.9
2016-Jul-20 22:32N 35°40' E 140°54'1410.3
2016-Jul-20 21:13N 35°52' E 140°49'711.1
2016-Jul-20 20:33N 35°58' E 140°43'4 3.6
2016-Jul-20 19:33N 35°56' E 140°40'0 0.0
2016-Jul-20 18:26N 35°56' E 140°40'0 0.0
2016-Jul-20 17:08N 35°56' E 140°40'0 0.1
2016-Jul-20 16:32N 35°56' E 140°40'0 0.1
2016-Jul-20 15:20N 35°56' E 140°40'0 0.1
2016-Jul-20 14:20N 35°56' E 140°40'0 0.1
2016-Jul-20 13:20N 35°56' E 140°40'0 0.0
2016-Jul-20 12:32N 35°56' E 140°40'0 0.0
2016-Jul-20 11:32N 35°56' E 140°40'0 0.1
2016-Jul-20 10:24N 35°56' E 140°40'0 0.1
2016-Jul-20 08:31N 35°55' E 140°40'0 0.0
2016-Jul-20 07:04N 35°55' E 140°40'0 0.0
2016-Jul-20 06:34N 35°55' E 140°40'0 0.0
2016-Jul-20 02:33N 35°55' E 140°40'0 0.0
2016-Jul-20 01:33N 35°55' E 140°40'0 0.0
2016-Jul-20 00:28N 35°55' E 140°40'0 0.0
2016-Jul-19 23:32N 35°55' E 140°40'0 0.0
2016-Jul-19 22:33N 35°55' E 140°40'0 0.0
2016-Jul-19 21:33N 35°55' E 140°40'0 0.0
2016-Jul-19 20:33N 35°55' E 140°40'0 0.0
2016-Jul-19 19:33N 35°55' E 140°40'0 0.0
2016-Jul-19 18:33N 35°55' E 140°40'0 0.0
2016-Jul-19 16:33N 35°55' E 140°40'0 0.0
2016-Jul-19 15:33N 35°55' E 140°40'0 0.0
2016-Jul-19 14:33N 35°55' E 140°40'0 0.1
2016-Jul-19 13:33N 35°56' E 140°40'0 0.2
2016-Jul-19 12:33N 35°56' E 140°40'0 0.1
2016-Jul-19 11:21N 35°56' E 140°40'0 0.0
2016-Jul-19 04:33N 35°56' E 140°40'0 0.0
2016-Jul-19 03:22N 35°56' E 140°40'0 0.1
2016-Jul-19 02:33N 35°56' E 140°40'4 4.4
2016-Jul-19 01:33N 35°58' E 140°44'0 0.0
2016-Jul-19 00:33N 35°58' E 140°44'0 0.0
2016-Jul-18 23:31N 35°58' E 140°44'0 0.0
2016-Jul-18 22:29N 35°58' E 140°44'0 0.0
2016-Jul-18 21:33N 35°58' E 140°44'7 7.0
2016-Jul-18 20:33N 35°52' E 140°49'1211.5
2016-Jul-18 19:33N 35°42' E 140°56'1111.6
2016-Jul-18 18:33N 35°32' E 140°48'1313.0
2016-Jul-18 17:32N 35°22' E 140°37'1412.7
2016-Jul-18 16:27N 35°11' E 140°27'1212.2
2016-Jul-18 15:29N 35°04' E 140°16'1112.1
2016-Jul-18 14:33N 34°58' E 140°04'1411.5
2016-Jul-18 13:20N 34°53' E 139°48'911.3
2016-Jul-18 12:33N 35°01' E 139°43'1212.1
2016-Jul-18 11:33N 35°13' E 139°46'1111.4
2016-Jul-18 10:33N 35°24' E 139°43'1212.2
2016-Jul-18 09:33N 35°31' E 139°55'9 9.3
2016-Jul-18 08:32N 35°37' E 140°05'0 0.0
2016-Jul-18 07:32N 35°37' E 140°05'0 0.0
2016-Jul-18 06:33N 35°37' E 140°05'0 0.0
2016-Jul-18 05:33N 35°37' E 140°05'0 0.5
2016-Jul-18 04:33N 35°36' E 140°05'5 4.9
2016-Jul-18 03:33N 35°33' E 140°00'0 0.3
2016-Jul-18 02:33N 35°33' E 140°00'1010.3
2016-Jul-18 01:33N 35°27' E 139°50'1010.2
2016-Jul-18 00:33N 35°18' E 139°45'10 9.9
2016-Jul-17 23:33N 35°08' E 139°45'243 9.6
2016-Jul-16 22:12N 34°02' E 135°01'711.1
2016-Jul-16 21:33N 34°10' E 134°60'1110.9
2016-Jul-16 20:32N 34°21' E 134°59'1010.8
2016-Jul-16 19:34N 34°31' E 135°02'  

Dump ship's entire track history